Terminal Aerodrome Forecast
Issued by NWS Charleston, WV

Current Version | Previous Version | Graphics & Text | Print | Product List | Glossary On
Versions: 1 2 3 4 5 6 7 8 9 10 11 12 13 14 15 16 17 18 19 20 21 22 23 24 25
000
FTUS41 KRLX 272000 AAB
TAFEKN
TAF AMD
KEKN 272014Z 2720/2818 18011G17KT P6SM SCT025 SCT110
     FM272200 24010G15KT P6SM SCT025 BKN110
     FM280000 23009KT 5SM TSRA BR BKN045CB
     FM280100 23008KT 6SM TSRA BR BKN045CB
     FM280300 23007KT P6SM BKN040
     FM280600 28010KT P6SM BKN035
     FM281600 29010KT P6SM VCTS BKN020CB=

USA.gov is the U.S. government's official web portal to all federal, state and local government web resources and services.